aviador You're here:

MMSL Decoded Metar

in
Report Time2018-02-25 14:46:00
UTC Time2018-02-25 15:08:40
Flight Rules vfr VFR
Wind310° at 03 kt
W.Decomp.*RWY 29: 2.8 kt HW 1.0 kt RCW
W.Rank310° ranks 11
Current wind is below 310° avg. (9.7)
Visibility9999 m
Phenomena:N/A
Clouds:N/A
Expected CloudBase > 1,600 ft AGL from Temp-Dew spread
CeilingNone
Temp15°C
Dew Point11°C (77% RH)
AAT14.2°C
QNH1019 hPa
Raw Report
METAR MMSL 251446Z 31003KT 8SM SKC 15/11 A3010 RMK CI=

Extra information for MMSL:More info

Social comments